createdAt,value
2022-10-18T00:02:00.836Z,101015.28
2022-10-18T00:04:30.498Z,101101.22
2022-10-18T00:06:58.946Z,101102.22
2022-10-18T00:09:27.740Z,101100.53
2022-10-18T00:11:56.347Z,101064.84
2022-10-18T00:14:24.554Z,101109.00
2022-10-18T00:16:52.684Z,101104.75
2022-10-18T00:19:22.845Z,101111.56
2022-10-18T00:21:54.203Z,101091.72
2022-10-18T00:24:22.321Z,101083.19
2022-10-18T00:26:50.531Z,101128.81
2022-10-18T00:29:18.721Z,101126.28
2022-10-18T00:31:46.876Z,101135.88
2022-10-18T00:34:17.170Z,101123.72
2022-10-18T00:36:46.039Z,101135.88
2022-10-18T00:39:17.787Z,101118.94
2022-10-18T00:41:46.686Z,101089.44
2022-10-18T00:44:51.954Z,101130.50
2022-10-18T00:47:21.320Z,101122.44
2022-10-18T00:49:53.548Z,101117.34
2022-10-18T00:52:25.334Z,101128.81
2022-10-18T00:54:56.900Z,101107.69
2022-10-18T00:57:26.076Z,101136.16
2022-10-18T00:59:55.143Z,101127.13
2022-10-18T01:02:23.806Z,101118.22
2022-10-18T01:04:52.058Z,101116.38
2022-10-18T01:07:33.357Z,101118.34
2022-10-18T01:10:17.876Z,101112.25
2022-10-18T01:12:56.396Z,101126.28
2022-10-18T01:15:29.131Z,101130.50
2022-10-18T01:18:04.666Z,101116.66
2022-10-18T01:21:16.670Z,101115.25
2022-10-18T01:24:12.745Z,101114.38
2022-10-18T01:27:10.906Z,101099.41
2022-10-18T01:29:51.967Z,101101.94
2022-10-18T01:32:24.583Z,101070.38
2022-10-18T01:34:57.313Z,101104.78
2022-10-18T01:37:26.644Z,101077.72
2022-10-18T01:39:58.331Z,101107.59
2022-10-18T01:42:27.198Z,101105.91
2022-10-18T01:44:56.328Z,101101.22
2022-10-18T01:47:26.843Z,101102.22
2022-10-18T01:50:00.306Z,101087.09
2022-10-18T01:52:28.651Z,101024.94
2022-10-18T01:54:58.246Z,101090.63
2022-10-18T01:57:32.193Z,101046.59
2022-10-18T02:00:03.348Z,101099.53
2022-10-18T02:02:44.709Z,101034.41
2022-10-18T02:05:21.254Z,101081.59
2022-10-18T02:08:05.672Z,101084.41
2022-10-18T02:10:45.967Z,101067.94
2022-10-18T02:13:18.567Z,101066.00
2022-10-18T02:15:49.799Z,101077.31
2022-10-18T02:18:23.512Z,101072.50
2022-10-18T02:20:53.374Z,101091.75
2022-10-18T02:23:26.232Z,101086.09
2022-10-18T02:25:55.017Z,101070.91
2022-10-18T02:31:05.761Z,101067.00
2022-10-18T02:33:39.953Z,101085.38
2022-10-18T02:36:14.492Z,101065.13
2022-10-18T02:38:43.804Z,101090.63
2022-10-18T02:41:11.999Z,101082.69
2022-10-18T02:43:40.200Z,101089.78
2022-10-18T02:46:08.637Z,101073.66
2022-10-18T02:48:38.323Z,101084.41
2022-10-18T02:51:06.621Z,101087.09
2022-10-18T02:53:35.231Z,101084.41
2022-10-18T02:56:03.764Z,101087.78
2022-10-18T02:58:32.019Z,101078.78
2022-10-18T03:01:00.155Z,101091.47
2022-10-18T03:03:28.290Z,101093.16
2022-10-18T03:05:57.909Z,101090.63
2022-10-18T03:08:26.271Z,101077.88
2022-10-18T03:10:54.516Z,101050.41
2022-10-18T03:13:22.840Z,101063.47
2022-10-18T03:15:51.024Z,101084.13
2022-10-18T03:18:19.281Z,101080.47
2022-10-18T03:20:47.502Z,101084.13
2022-10-18T03:23:17.054Z,101077.91
2022-10-18T03:25:46.477Z,101083.41
2022-10-18T03:28:14.685Z,101057.78
2022-10-18T03:30:42.759Z,101084.13
2022-10-18T03:33:11.028Z,101031.31
2022-10-18T03:35:39.251Z,101070.25
2022-10-18T03:38:07.545Z,101078.03
2022-10-18T03:40:37.308Z,101023.13
2022-10-18T03:43:05.472Z,101092.91
2022-10-18T03:45:35.050Z,101070.25
2022-10-18T03:48:05.280Z,101062.06
2022-10-18T03:50:34.857Z,101070.19
2022-10-18T03:53:03.555Z,101050.47
2022-10-18T03:55:32.344Z,101074.28
2022-10-18T03:58:04.966Z,101077.66
2022-10-18T04:00:40.190Z,101077.66
2022-10-18T04:03:12.168Z,101064.94
2022-10-18T04:05:41.256Z,101002.81
2022-10-18T04:08:09.570Z,101055.88
2022-10-18T04:10:41.756Z,101061.25
2022-10-18T04:13:12.046Z,101067.34
2022-10-18T04:15:41.196Z,101027.28
2022-10-18T04:18:11.422Z,101061.84
2022-10-18T04:20:39.881Z,101038.91
2022-10-18T04:23:08.804Z,101064.38
2022-10-18T04:25:39.610Z,101041.75
2022-10-18T04:28:09.793Z,101053.34
2022-10-18T04:30:39.725Z,101008.03
2022-10-18T04:33:09.190Z,101033.25
2022-10-18T04:35:39.146Z,101047.97
2022-10-18T04:38:07.763Z,100895.72
2022-10-18T04:40:37.098Z,101051.38
2022-10-18T04:43:05.410Z,101053.06
2022-10-18T04:45:35.441Z,100997.88
2022-10-18T04:48:05.896Z,101052.22
2022-10-18T04:50:34.676Z,101040.03
2022-10-18T04:53:02.868Z,101072.88
2022-10-18T04:55:31.350Z,101065.50
2022-10-18T04:57:59.944Z,101063.81
2022-10-18T05:00:28.163Z,101033.53
2022-10-18T05:03:00.457Z,101064.53
2022-10-18T05:05:50.039Z,101004.22
2022-10-18T05:08:18.472Z,101053.78
2022-10-18T05:10:46.750Z,101019.66
2022-10-18T05:13:18.011Z,101045.72
2022-10-18T05:15:47.880Z,101062.69
2022-10-18T05:18:16.044Z,101069.47
2022-10-18T05:20:45.799Z,101062.84
2022-10-18T05:23:18.617Z,101064.38
2022-10-18T05:25:46.871Z,101052.22
2022-10-18T05:28:38.712Z,101015.66
2022-10-18T05:31:08.316Z,101070.03
2022-10-18T05:33:36.537Z,101059.31
2022-10-18T05:36:13.472Z,101079.38
2022-10-18T05:38:53.562Z,101057.03
2022-10-18T05:41:23.214Z,101050.81
2022-10-18T05:43:52.848Z,101043.72
2022-10-18T05:46:22.332Z,100970.69
2022-10-18T05:48:53.837Z,100999.00
2022-10-18T05:51:24.193Z,100981.44
2022-10-18T05:53:53.437Z,101003.78
2022-10-18T05:56:21.671Z,101061.56
2022-10-18T05:59:10.355Z,101056.19
2022-10-18T06:01:38.709Z,101053.91
2022-10-18T06:04:08.527Z,101034.09
2022-10-18T06:06:40.646Z,101037.50
2022-10-18T06:09:13.147Z,101067.22
2022-10-18T06:11:42.817Z,101079.41
2022-10-18T06:14:11.629Z,101075.16
2022-10-18T06:16:39.849Z,101064.53
2022-10-18T06:19:08.640Z,101099.22
2022-10-18T06:21:38.935Z,101087.47
2022-10-18T06:24:08.936Z,101085.78
2022-10-18T06:26:38.194Z,101084.06
2022-10-18T06:29:06.928Z,101090.44
2022-10-18T06:31:37.384Z,101087.03
2022-10-18T06:34:05.968Z,101076.25
2022-10-18T06:36:35.708Z,101086.88
2022-10-18T06:39:18.057Z,101087.03
2022-10-18T06:41:48.219Z,101088.75
2022-10-18T06:44:17.751Z,101008.84
2022-10-18T06:46:48.683Z,100911.84
2022-10-18T06:49:19.257Z,101089.44
2022-10-18T06:51:48.097Z,100924.81
2022-10-18T06:54:21.192Z,101093.84
2022-10-18T06:56:49.306Z,101099.22
2022-10-18T06:59:19.775Z,101087.47
2022-10-18T07:01:51.092Z,101084.78
2022-10-18T07:04:19.427Z,101084.59
2022-10-18T07:06:50.417Z,101064.66
2022-10-18T07:09:22.896Z,101062.25
2022-10-18T07:11:52.896Z,101095.53
2022-10-18T07:14:26.923Z,101101.63
2022-10-18T07:17:01.560Z,101095.53
2022-10-18T07:19:33.968Z,101081.09
2022-10-18T07:22:02.853Z,101055.47
2022-10-18T07:27:12.120Z,100998.84
2022-10-18T07:29:41.808Z,101093.56
2022-10-18T07:32:09.960Z,101082.81
2022-10-18T07:34:48.947Z,101080.69
2022-10-18T07:37:25.413Z,101010.72
2022-10-18T07:39:57.560Z,101002.63
2022-10-18T07:42:25.808Z,101005.47
2022-10-18T07:45:10.501Z,101091.84
2022-10-18T07:47:38.867Z,101093.84
2022-10-18T07:50:08.790Z,100940.38
2022-10-18T07:52:38.425Z,100913.59
2022-10-18T07:55:08.905Z,101103.44
2022-10-18T07:57:39.909Z,101084.19
2022-10-18T08:00:09.982Z,100962.78
2022-10-18T08:02:38.986Z,101097.22
2022-10-18T08:05:08.015Z,101029.53
2022-10-18T08:07:36.228Z,101019.06
2022-10-18T08:10:05.429Z,101093.28
2022-10-18T08:12:34.997Z,101094.09
2022-10-18T08:15:08.159Z,101084.22
2022-10-18T08:17:43.766Z,100992.34
2022-10-18T08:20:26.523Z,101085.91
2022-10-18T08:23:00.436Z,101081.09
2022-10-18T08:25:29.178Z,101077.28
2022-10-18T08:27:59.007Z,100989.09
2022-10-18T08:30:27.654Z,101003.22
2022-10-18T08:32:55.954Z,101084.50
2022-10-18T08:35:24.263Z,100993.47
2022-10-18T08:37:52.450Z,101086.19
2022-10-18T08:40:21.131Z,101085.34
2022-10-18T08:43:08.479Z,101086.19
2022-10-18T08:45:46.255Z,101093.28
2022-10-18T08:48:22.985Z,101070.59
2022-10-18T08:50:53.047Z,101067.09
2022-10-18T08:53:28.655Z,101086.91
2022-10-18T08:56:03.919Z,100897.16
2022-10-18T08:58:35.046Z,101050.22
2022-10-18T09:01:16.065Z,100901.94
2022-10-18T09:04:02.631Z,101082.53
2022-10-18T09:06:37.249Z,101082.81
2022-10-18T09:09:22.234Z,101085.22
2022-10-18T09:12:02.101Z,101087.91
2022-10-18T09:15:04.464Z,101090.59
2022-10-18T09:17:48.622Z,101073.47
2022-10-18T09:20:26.587Z,101002.78
2022-10-18T09:23:00.337Z,101095.25
2022-10-18T09:25:37.984Z,100997.84
2022-10-18T09:28:18.293Z,101105.28
2022-10-18T09:30:59.644Z,101099.22
2022-10-18T09:33:42.099Z,101053.59
2022-10-18T09:36:12.503Z,101057.56
2022-10-18T09:38:47.953Z,101079.94
2022-10-18T09:41:21.692Z,101007.72
2022-10-18T09:43:56.553Z,101085.59
2022-10-18T09:46:32.743Z,101093.81
2022-10-18T09:49:05.790Z,101093.81
2022-10-18T09:51:39.017Z,101092.94
2022-10-18T09:54:22.299Z,101091.25
2022-10-18T09:56:53.634Z,101091.25
2022-10-18T09:59:43.399Z,101084.19
2022-10-18T10:02:18.065Z,101043.41
2022-10-18T10:04:47.158Z,101089.56
2022-10-18T10:07:19.397Z,101083.75
2022-10-18T10:09:50.908Z,100926.13
2022-10-18T10:12:33.210Z,101067.75
2022-10-18T10:15:18.822Z,101089.84
2022-10-18T10:17:58.100Z,100998.53
2022-10-18T10:20:31.749Z,101086.16
2022-10-18T10:23:12.532Z,101089.84
2022-10-18T10:25:43.624Z,100922.22
2022-10-18T10:28:18.045Z,101085.19
2022-10-18T10:30:46.323Z,101084.47
2022-10-18T10:33:35.625Z,101089.84
2022-10-18T10:36:07.103Z,101097.91
2022-10-18T10:38:36.254Z,101098.88
2022-10-18T10:41:05.838Z,101092.06
2022-10-18T10:43:39.430Z,101077.03
2022-10-18T10:46:12.315Z,101100.88
2022-10-18T10:49:04.207Z,101096.47
2022-10-18T10:51:41.546Z,101102.28
2022-10-18T10:54:20.954Z,101097.38
2022-10-18T10:57:01.459Z,101101.47
2022-10-18T10:59:32.209Z,101096.22
2022-10-18T11:02:22.849Z,101009.69
2022-10-18T11:04:53.437Z,101095.78
2022-10-18T11:07:27.076Z,101082.63
2022-10-18T11:10:01.389Z,101097.19
2022-10-18T11:12:34.959Z,101093.22
2022-10-18T11:15:15.893Z,101014.66
2022-10-18T11:17:48.980Z,101098.19
2022-10-18T11:20:28.959Z,101084.75
2022-10-18T11:23:02.803Z,101089.13
2022-10-18T11:25:50.066Z,101001.78
2022-10-18T11:28:30.040Z,101090.13
2022-10-18T11:31:15.642Z,100998.22
2022-10-18T11:34:08.653Z,101096.47
2022-10-18T11:36:56.401Z,101081.91
2022-10-18T11:39:47.548Z,101094.91
2022-10-18T11:42:35.679Z,101015.91
2022-10-18T11:45:23.122Z,101095.22
2022-10-18T11:48:04.022Z,100910.31
2022-10-18T11:50:44.788Z,101094.66
2022-10-18T11:53:29.083Z,100995.00
2022-10-18T11:56:10.873Z,101092.66
2022-10-18T11:58:57.404Z,101065.22
2022-10-18T12:01:33.825Z,101090.72
2022-10-18T12:04:09.388Z,100930.69
2022-10-18T12:06:41.069Z,101009.41
2022-10-18T12:09:18.486Z,101081.66
2022-10-18T12:11:55.780Z,101086.75
2022-10-18T12:14:28.362Z,101090.72
2022-10-18T12:17:28.024Z,101095.25
2022-10-18T12:20:23.035Z,101091.56
2022-10-18T12:22:57.536Z,101088.88
2022-10-18T12:25:30.070Z,101086.19
2022-10-18T12:28:04.206Z,101077.72
2022-10-18T12:30:43.311Z,101079.09
2022-10-18T12:33:27.884Z,101071.72
2022-10-18T12:36:22.938Z,101094.53
2022-10-18T12:38:55.441Z,101093.69
2022-10-18T12:41:28.911Z,101091.84
2022-10-18T12:44:02.498Z,101007.91
2022-10-18T12:46:45.772Z,101095.25
2022-10-18T12:49:19.873Z,101037.16
2022-10-18T12:52:05.656Z,101088.47
2022-10-18T12:54:36.758Z,101091.56
2022-10-18T12:57:08.278Z,101093.56
2022-10-18T12:59:45.444Z,101097.78
2022-10-18T13:02:31.870Z,101089.59
2022-10-18T13:05:42.038Z,101099.63
2022-10-18T13:08:43.442Z,101090.16
2022-10-18T13:11:36.102Z,101098.78
2022-10-18T13:14:29.978Z,101094.25
2022-10-18T13:17:08.929Z,101019.47
2022-10-18T13:19:58.061Z,101092.13
2022-10-18T13:22:58.331Z,101111.94
2022-10-18T13:25:34.348Z,101106.00
2022-10-18T13:28:17.400Z,101099.75
2022-10-18T13:30:56.637Z,101021.88
2022-10-18T13:33:32.890Z,101123.00
2022-10-18T13:36:24.913Z,101115.34
2022-10-18T13:39:27.685Z,101112.78
2022-10-18T13:42:32.992Z,101121.84
2022-10-18T13:45:39.333Z,101125.53
2022-10-18T13:48:43.701Z,101132.59
2022-10-18T13:51:36.414Z,101131.88
2022-10-18T13:54:18.886Z,101123.81
2022-10-18T13:56:59.073Z,101138.25
2022-10-18T14:00:00.251Z,101121.00
2022-10-18T14:03:00.228Z,101142.50
2022-10-18T14:05:52.326Z,101053.28
2022-10-18T14:08:29.610Z,101138.25
2022-10-18T14:11:05.748Z,101148.47
2022-10-18T14:13:43.974Z,101066.56
2022-10-18T14:16:28.347Z,101083.16
2022-10-18T14:19:05.912Z,101150.88
2022-10-18T14:21:43.611Z,101088.06
2022-10-18T14:24:23.350Z,101096.34
2022-10-18T14:27:13.208Z,101162.34
2022-10-18T14:30:14.519Z,101150.44
2022-10-18T14:32:50.370Z,101164.31
2022-10-18T14:35:32.656Z,101157.34
2022-10-18T14:38:02.626Z,101061.44
2022-10-18T14:40:45.571Z,101147.16
2022-10-18T14:43:21.038Z,101181.44
2022-10-18T14:45:49.538Z,101181.44
2022-10-18T14:48:23.717Z,101188.66
2022-10-18T14:51:00.572Z,101176.19
2022-10-18T14:53:35.069Z,101189.50
2022-10-18T14:56:22.125Z,101161.44
2022-10-18T14:58:53.118Z,101029.66
2022-10-18T15:01:26.701Z,101200.53
2022-10-18T15:04:02.951Z,101196.84
2022-10-18T15:06:37.192Z,101184.41
2022-10-18T15:09:09.984Z,101186.09
2022-10-18T15:11:42.655Z,101193.16
2022-10-18T15:14:16.140Z,101181.72
2022-10-18T15:16:44.670Z,101197.59
2022-10-18T15:19:33.925Z,101191.19
2022-10-18T15:25:27.959Z,101201.97
2022-10-18T15:28:04.199Z,101178.59
2022-10-18T15:30:43.069Z,101139.34
2022-10-18T15:33:23.585Z,101109.41
2022-10-18T15:35:54.150Z,101207.34
2022-10-18T15:38:28.728Z,101212.72
2022-10-18T15:41:05.026Z,101213.00
2022-10-18T15:43:41.368Z,101139.25
2022-10-18T15:46:32.253Z,101207.88
2022-10-18T15:49:40.698Z,101235.91
2022-10-18T15:52:40.765Z,101227.72
2022-10-18T15:55:49.229Z,101253.78
2022-10-18T15:58:26.574Z,101253.91
2022-10-18T16:01:01.167Z,101248.50
2022-10-18T16:03:30.611Z,101246.53
2022-10-18T16:06:02.377Z,101182.38
2022-10-18T16:08:32.582Z,101158.13
2022-10-18T16:11:01.333Z,101273.16
2022-10-18T16:13:29.583Z,101185.34
2022-10-18T16:16:02.478Z,101274.38
2022-10-18T16:18:31.105Z,101276.38
2022-10-18T16:21:02.128Z,101209.38
2022-10-18T16:23:32.012Z,101281.03
2022-10-18T16:26:01.269Z,101274.91
2022-10-18T16:28:31.954Z,101201.56
2022-10-18T16:31:09.480Z,101204.25
2022-10-18T16:33:39.518Z,101293.03
2022-10-18T16:36:09.193Z,101300.25
2022-10-18T16:38:43.688Z,101282.38
2022-10-18T16:41:13.600Z,101211.84
2022-10-18T16:43:43.310Z,101307.44
2022-10-18T16:46:18.879Z,101297.91
2022-10-18T16:48:54.745Z,101232.06
2022-10-18T16:51:27.134Z,101292.66
2022-10-18T16:53:56.120Z,101313.09
2022-10-18T16:56:28.243Z,101303.75
2022-10-18T16:58:58.122Z,101323.56
2022-10-18T17:01:28.539Z,101311.59
2022-10-18T17:03:57.669Z,101251.41
2022-10-18T17:06:30.310Z,101321.97
2022-10-18T17:09:02.293Z,101170.69
2022-10-18T17:11:35.541Z,101330.50
2022-10-18T17:14:04.601Z,101154.91
2022-10-18T17:16:39.425Z,101349.31
2022-10-18T17:19:11.912Z,101346.63
2022-10-18T17:21:45.014Z,101270.94
2022-10-18T17:24:13.563Z,101343.94
2022-10-18T17:26:42.580Z,101343.06
2022-10-18T17:29:11.465Z,101264.41
2022-10-18T17:31:44.539Z,101248.88
2022-10-18T17:34:14.789Z,101240.50
2022-10-18T17:36:47.942Z,101367.66
2022-10-18T17:39:18.101Z,101373.03
2022-10-18T17:41:46.294Z,101372.19
2022-10-18T17:44:16.467Z,101381.09
2022-10-18T17:46:46.468Z,101302.78
2022-10-18T17:49:15.610Z,101398.22
2022-10-18T17:51:45.593Z,101322.31
2022-10-18T17:54:13.987Z,101311.34
2022-10-18T17:56:56.278Z,101385.09
2022-10-18T17:59:24.595Z,101416.28
2022-10-18T18:01:54.382Z,101241.03
2022-10-18T18:04:24.122Z,101419.97
2022-10-18T18:06:53.994Z,101337.56
2022-10-18T18:09:22.534Z,101419.97
2022-10-18T18:11:52.314Z,101430.72
2022-10-18T18:14:21.404Z,101440.63
2022-10-18T18:16:55.094Z,101243.50
2022-10-18T18:19:28.534Z,101439.78
2022-10-18T18:22:02.544Z,101425.88
2022-10-18T18:24:32.257Z,101357.41
2022-10-18T18:27:13.103Z,101449.75
2022-10-18T18:29:42.782Z,101459.38
2022-10-18T18:32:13.680Z,101461.06
2022-10-18T18:34:45.758Z,101380.06
2022-10-18T18:37:15.282Z,101380.34
2022-10-18T18:39:46.926Z,101493.94
2022-10-18T18:42:19.119Z,101475.00
2022-10-18T18:44:47.527Z,101457.59
2022-10-18T18:47:21.964Z,101482.94
2022-10-18T18:49:52.845Z,101416.66
2022-10-18T18:52:23.517Z,101499.31
2022-10-18T18:54:51.804Z,101493.69
2022-10-18T18:57:20.216Z,101495.38
2022-10-18T18:59:50.235Z,101489.44
2022-10-18T19:02:23.461Z,101362.88
2022-10-18T19:04:55.552Z,101386.06
2022-10-18T19:07:25.243Z,101520.31
2022-10-18T19:09:58.970Z,101506.66
2022-10-18T19:12:31.592Z,101515.44
2022-10-18T19:15:02.591Z,101515.19
2022-10-18T19:17:32.698Z,101525.94
2022-10-18T19:20:01.478Z,101366.84
2022-10-18T19:22:29.632Z,101546.69
2022-10-18T19:24:57.796Z,101476.97
2022-10-18T19:27:27.206Z,101545.69
2022-10-18T19:29:55.588Z,101548.25
2022-10-18T19:32:24.046Z,101557.19
2022-10-18T19:34:53.736Z,101469.94
2022-10-18T19:37:22.438Z,101573.06
2022-10-18T19:39:50.778Z,101542.06
2022-10-18T19:42:22.704Z,101572.78
2022-10-18T19:45:00.181Z,101575.59
2022-10-18T19:47:28.595Z,101535.25
2022-10-18T19:49:59.260Z,101567.84
2022-10-18T19:52:28.552Z,101589.19
2022-10-18T19:54:56.849Z,101592.00
2022-10-18T19:57:26.183Z,101586.63
2022-10-18T19:59:56.095Z,101597.63
2022-10-18T20:02:25.038Z,101518.22
2022-10-18T20:04:53.580Z,101603.88
2022-10-18T20:07:23.256Z,101604.84
2022-10-18T20:09:51.481Z,101535.34
2022-10-18T20:12:21.781Z,101619.16
2022-10-18T20:14:49.983Z,101608.66
2022-10-18T20:17:18.155Z,101614.63
2022-10-18T20:19:46.389Z,101550.22
2022-10-18T20:22:14.559Z,101628.47
2022-10-18T20:24:44.353Z,101636.41
2022-10-18T20:27:12.513Z,101644.47
2022-10-18T20:29:40.676Z,101643.72
2022-10-18T20:32:10.710Z,101650.81
2022-10-18T20:34:39.665Z,101650.81
2022-10-18T20:37:08.198Z,101651.06
2022-10-18T20:39:36.546Z,101647.41
2022-10-18T20:42:06.165Z,101647.66
2022-10-18T20:44:38.270Z,101656.44
2022-10-18T20:47:06.410Z,101642.78
2022-10-18T20:49:34.582Z,101491.41
2022-10-18T20:52:02.902Z,101644.75
2022-10-18T20:54:31.260Z,101666.94
2022-10-18T20:56:59.428Z,101561.03
2022-10-18T20:59:31.329Z,101666.38
2022-10-18T21:01:59.493Z,101680.50
2022-10-18T21:04:27.902Z,101604.22
2022-10-18T21:06:56.080Z,101673.56
2022-10-18T21:09:24.379Z,101681.63
2022-10-18T21:11:53.958Z,101681.63
2022-10-18T21:14:24.234Z,101685.31
2022-10-18T21:16:54.267Z,101533.75
2022-10-18T21:19:27.306Z,101698.88
2022-10-18T21:21:57.921Z,101680.06
2022-10-18T21:24:27.266Z,101699.13
2022-10-18T21:26:55.843Z,101708.78
2022-10-18T21:29:25.059Z,101600.75
2022-10-18T21:31:59.418Z,101714.16
2022-10-18T21:34:27.931Z,101723.31
2022-10-18T21:36:56.199Z,101638.06
2022-10-18T21:39:25.377Z,101718.78
2022-10-18T21:41:53.745Z,101716.34
2022-10-18T21:44:22.032Z,101730.53
2022-10-18T21:46:50.923Z,101647.00
2022-10-18T21:49:25.156Z,101723.44
2022-10-18T21:51:54.646Z,101723.44
2022-10-18T21:54:22.903Z,101711.00
2022-10-18T21:56:51.765Z,101728.81
2022-10-18T21:59:19.926Z,101727.09
2022-10-18T22:01:48.186Z,101732.47
2022-10-18T22:04:21.823Z,101600.63
2022-10-18T22:06:50.480Z,101737.72
2022-10-18T22:09:19.162Z,101728.81
2022-10-18T22:11:49.315Z,101738.59
2022-10-18T22:14:17.576Z,101735.91
2022-10-18T22:16:45.802Z,101736.16
2022-10-18T22:19:14.160Z,101750.34
2022-10-18T22:21:43.772Z,101678.13
2022-10-18T22:24:12.067Z,101753.03
2022-10-18T22:26:41.492Z,101692.28
2022-10-18T22:29:12.507Z,101759.34
2022-10-18T22:31:43.529Z,101759.34
2022-10-18T22:34:14.459Z,101754.97
2022-10-18T22:36:44.572Z,101763.03
2022-10-18T22:39:14.560Z,101769.28
2022-10-18T22:41:43.114Z,101768.41
2022-10-18T22:44:13.454Z,101773.78
2022-10-18T22:46:41.947Z,101768.91
2022-10-18T22:49:10.522Z,101775.50
2022-10-18T22:51:39.055Z,101736.38
2022-10-18T22:54:09.508Z,101659.94
2022-10-18T22:56:37.816Z,101779.16
2022-10-18T22:59:06.121Z,101789.91
2022-10-18T23:01:34.359Z,101783.81
2022-10-18T23:04:03.545Z,101641.88
2022-10-18T23:06:34.480Z,101796.28
2022-10-18T23:09:05.505Z,101798.97
2022-10-18T23:11:36.323Z,101792.34
2022-10-18T23:14:06.539Z,101809.72
2022-10-18T23:16:34.865Z,101786.00
2022-10-18T23:19:03.105Z,101814.25
2022-10-18T23:21:31.276Z,101807.03
2022-10-18T23:23:59.741Z,101805.56
2022-10-18T23:26:29.142Z,101808.00
2022-10-18T23:28:58.906Z,101815.09
2022-10-18T23:31:28.581Z,101809.72
2022-10-18T23:33:58.406Z,101806.28
2022-10-18T23:36:27.413Z,101813.38
2022-10-18T23:38:55.986Z,101742.72
2022-10-18T23:41:24.737Z,101731.50
2022-10-18T23:43:53.096Z,101827.81
2022-10-18T23:46:23.192Z,101838.56
2022-10-18T23:48:51.602Z,101839.53
2022-10-18T23:51:20.269Z,101681.38
2022-10-18T23:53:48.655Z,101858.34
2022-10-18T23:56:18.014Z,101862.88
2022-10-18T23:58:46.825Z,101862.00
